createdAt,value
2018-10-12T00:04:17.276Z,90.06
2018-10-12T00:09:12.435Z,91.64
2018-10-12T00:14:07.509Z,93.03
2018-10-12T00:19:02.327Z,92.94
2018-10-12T00:23:57.202Z,93.55
2018-10-12T00:28:52.012Z,93.27
2018-10-12T00:33:46.942Z,93.63
2018-10-12T00:38:42.642Z,93.95
2018-10-12T00:43:37.487Z,93.52
2018-10-12T00:48:32.315Z,92.07
2018-10-12T00:53:27.197Z,93.12
2018-10-12T00:58:21.997Z,95.46
2018-10-12T01:03:16.873Z,94.42
2018-10-12T01:08:11.840Z,94.11
2018-10-12T01:13:06.666Z,93.47
2018-10-12T01:18:01.498Z,92.60
2018-10-12T01:22:56.442Z,93.90
2018-10-12T01:27:51.368Z,92.55
2018-10-12T01:32:51.264Z,94.28
2018-10-12T01:37:46.201Z,95.64
2018-10-12T01:42:41.022Z,93.80
2018-10-12T01:47:35.842Z,95.01
2018-10-12T01:52:30.783Z,95.39
2018-10-12T01:57:25.698Z,95.30
2018-10-12T02:02:20.527Z,94.28
2018-10-12T02:07:15.373Z,93.36
2018-10-12T02:12:10.269Z,94.44
2018-10-12T02:17:05.090Z,94.70
2018-10-12T02:21:59.913Z,93.97
2018-10-12T02:26:54.809Z,92.93
2018-10-12T02:31:49.691Z,92.83
2018-10-12T02:36:44.581Z,92.71
2018-10-12T02:41:39.469Z,93.95
2018-10-12T02:46:34.288Z,93.47
2018-10-12T02:51:30.027Z,93.65
2018-10-12T02:56:25.227Z,94.79
2018-10-12T03:01:20.850Z,95.36
2018-10-12T03:06:15.947Z,95.87
2018-10-12T03:11:10.764Z,96.22
2018-10-12T03:16:05.678Z,97.41
2018-10-12T03:21:00.563Z,99.88
2018-10-12T03:25:55.390Z,98.20
2018-10-12T03:30:50.421Z,99.27
2018-10-12T03:35:45.759Z,96.83
2018-10-12T03:40:40.689Z,98.07
2018-10-12T03:45:35.596Z,97.30
2018-10-12T03:50:30.478Z,96.62
2018-10-12T03:55:25.449Z,96.07
2018-10-12T04:00:20.310Z,96.40
2018-10-12T04:05:15.743Z,97.56
2018-10-12T04:10:10.763Z,98.22
2018-10-12T04:15:05.750Z,99.33
2018-10-12T04:20:00.587Z,97.93
2018-10-12T04:24:55.535Z,98.06
2018-10-12T04:29:50.477Z,97.92
2018-10-12T04:34:46.380Z,98.14
2018-10-12T04:39:56.131Z,99.25
2018-10-12T04:44:51.567Z,100.00
2018-10-12T04:49:48.051Z,98.90
2018-10-12T04:54:42.886Z,99.92
2018-10-12T04:59:37.974Z,100.00
2018-10-12T05:04:32.851Z,100.00
2018-10-12T05:09:27.734Z,100.00
2018-10-12T05:14:22.600Z,100.00
2018-10-12T05:19:17.401Z,99.31
2018-10-12T05:24:12.218Z,99.70
2018-10-12T05:29:08.031Z,99.07
2018-10-12T05:34:03.338Z,98.48
2018-10-12T05:38:58.231Z,97.32
2018-10-12T05:43:53.178Z,97.85
2018-10-12T05:49:04.579Z,99.28
2018-10-12T05:53:59.856Z,99.46
2018-10-12T05:58:55.477Z,100.00
2018-10-12T06:03:50.379Z,100.00
2018-10-12T06:08:45.314Z,100.00
2018-10-12T06:13:40.247Z,100.00
2018-10-12T06:18:35.872Z,100.00
2018-10-12T06:23:30.830Z,100.00
2018-10-12T06:28:26.405Z,100.00
2018-10-12T06:33:23.305Z,100.00
2018-10-12T06:38:18.706Z,100.00
2018-10-12T06:43:15.157Z,100.00
2018-10-12T06:48:09.985Z,100.00
2018-10-12T06:53:04.829Z,100.00
2018-10-12T06:58:00.581Z,100.00
2018-10-12T07:02:55.599Z,100.00
2018-10-12T07:07:50.458Z,100.00
2018-10-12T07:12:45.320Z,100.00
2018-10-12T07:17:40.138Z,100.00
2018-10-12T07:22:35.445Z,100.00
2018-10-12T07:27:30.671Z,100.00
2018-10-12T07:32:25.622Z,100.00
2018-10-12T07:37:20.658Z,100.00
2018-10-12T07:42:16.437Z,100.00
2018-10-12T07:47:11.520Z,100.00
2018-10-12T07:52:06.433Z,100.00
2018-10-12T07:57:07.163Z,100.00
2018-10-12T08:02:02.924Z,100.00
2018-10-12T08:06:57.782Z,100.00
2018-10-12T08:11:52.752Z,100.00
2018-10-12T08:16:48.181Z,100.00
2018-10-12T08:21:43.064Z,100.00
2018-10-12T08:26:38.001Z,100.00
2018-10-12T08:31:33.062Z,100.00
2018-10-12T08:36:27.898Z,98.75
2018-10-12T08:41:22.665Z,96.63
2018-10-12T08:46:17.507Z,97.33
2018-10-12T08:51:12.394Z,98.16
2018-10-12T08:56:07.434Z,98.07
2018-10-12T09:01:02.310Z,94.29
2018-10-12T09:05:57.112Z,90.25
2018-10-12T09:10:51.940Z,88.76
2018-10-12T09:15:46.725Z,90.70
2018-10-12T09:20:41.609Z,89.71
2018-10-12T09:25:36.394Z,89.19
2018-10-12T09:30:31.199Z,87.03
2018-10-12T09:35:26.059Z,84.65
2018-10-12T09:40:20.908Z,84.09
2018-10-12T09:45:15.746Z,86.30
2018-10-12T09:50:10.779Z,87.25
2018-10-12T09:55:05.710Z,86.78
2018-10-12T10:00:00.769Z,85.73
2018-10-12T10:04:59.628Z,86.29
2018-10-12T10:09:54.658Z,81.76
2018-10-12T10:14:49.662Z,77.71
2018-10-12T10:19:45.162Z,79.56
2018-10-12T10:24:40.102Z,81.45
2018-10-12T10:29:35.037Z,77.72
2018-10-12T10:34:30.242Z,76.43
2018-10-12T10:39:25.220Z,79.90
2018-10-12T10:44:20.122Z,80.86
2018-10-12T10:49:15.015Z,76.86
2018-10-12T10:54:09.912Z,79.77
2018-10-12T10:59:04.821Z,78.42
2018-10-12T11:04:00.289Z,77.93
2018-10-12T11:08:55.190Z,80.16
2018-10-12T11:13:50.072Z,77.12
2018-10-12T11:18:44.985Z,77.46
2018-10-12T11:23:39.985Z,77.53
2018-10-12T11:28:34.933Z,77.57
2018-10-12T11:33:31.071Z,74.91
2018-10-12T11:38:26.707Z,76.49
2018-10-12T11:43:32.778Z,74.28
2018-10-12T11:48:27.637Z,74.57
2018-10-12T11:53:22.868Z,70.13
2018-10-12T11:58:17.814Z,71.33
2018-10-12T12:03:12.821Z,70.62
2018-10-12T12:08:08.424Z,71.34
2018-10-12T12:13:03.369Z,73.33
2018-10-12T12:17:58.629Z,70.38
2018-10-12T12:22:53.619Z,70.87
2018-10-12T12:27:50.045Z,67.25
2018-10-12T12:32:45.678Z,67.56
2018-10-12T12:37:40.745Z,69.55
2018-10-12T12:42:35.641Z,69.43
2018-10-12T12:47:50.940Z,69.30
2018-10-12T12:52:46.113Z,69.69
2018-10-12T12:57:41.032Z,69.30
2018-10-12T13:02:36.580Z,70.28
2018-10-12T13:07:31.398Z,70.71
2018-10-12T13:18:31.346Z,69.05
2018-10-12T13:23:26.295Z,69.94
2018-10-12T13:28:21.321Z,70.03
2018-10-12T13:33:16.309Z,70.56
2018-10-12T13:38:11.350Z,69.47
2018-10-12T13:43:06.329Z,68.86
2018-10-12T13:48:01.937Z,69.29
2018-10-12T13:52:57.125Z,68.65
2018-10-12T13:57:52.135Z,69.52
2018-10-12T14:02:47.156Z,65.59
2018-10-12T14:07:42.094Z,68.73
2018-10-12T14:12:37.044Z,68.34
2018-10-12T14:17:32.037Z,67.05
2018-10-12T14:22:27.076Z,65.50
2018-10-12T14:27:22.048Z,65.50
2018-10-12T14:32:17.080Z,67.16
2018-10-12T14:37:12.097Z,67.18
2018-10-12T14:42:07.315Z,66.77
2018-10-12T14:47:03.775Z,68.41
2018-10-12T14:51:58.800Z,65.91
2018-10-12T14:56:53.891Z,65.84
2018-10-12T15:01:49.590Z,66.53
2018-10-12T15:06:44.979Z,68.48
2018-10-12T15:11:40.377Z,69.01
2018-10-12T15:16:35.245Z,70.07
2018-10-12T15:21:30.553Z,72.68
2018-10-12T15:26:25.615Z,74.36
2018-10-12T15:31:20.621Z,74.76
2018-10-12T15:36:15.474Z,75.34
2018-10-12T15:41:10.400Z,76.63
2018-10-12T15:46:05.351Z,77.79
2018-10-12T15:51:00.286Z,79.91
2018-10-12T15:55:55.172Z,81.20
2018-10-12T16:00:50.070Z,82.44
2018-10-12T16:05:45.220Z,83.40
2018-10-12T16:10:40.900Z,85.46
2018-10-12T16:15:37.390Z,85.91
2018-10-12T16:20:32.572Z,87.21
2018-10-12T16:26:23.013Z,86.71
2018-10-12T16:31:18.207Z,87.72
2018-10-12T16:36:20.194Z,88.54
2018-10-12T16:41:15.560Z,88.54
2018-10-12T16:46:10.885Z,88.58
2018-10-12T16:51:05.981Z,88.71
2018-10-12T16:56:00.995Z,89.67
2018-10-12T17:00:56.027Z,88.58
2018-10-12T17:05:51.171Z,88.64
2018-10-12T17:10:46.186Z,88.97
2018-10-12T17:15:41.182Z,88.11
2018-10-12T17:20:43.336Z,88.78
2018-10-12T17:25:40.601Z,88.39
2018-10-12T17:30:35.900Z,88.38
2018-10-12T17:35:31.072Z,87.65
2018-10-12T17:40:27.967Z,88.39
2018-10-12T17:45:23.285Z,87.72
2018-10-12T17:50:19.209Z,88.37
2018-10-12T17:55:14.558Z,87.74
2018-10-12T18:00:11.706Z,87.32
2018-10-12T18:05:07.347Z,87.72
2018-10-12T18:10:02.323Z,87.40
2018-10-12T18:14:57.231Z,88.03
2018-10-12T18:19:53.992Z,87.33
2018-10-12T18:24:49.546Z,86.99
2018-10-12T18:29:44.825Z,87.27
2018-10-12T18:34:40.832Z,87.48
2018-10-12T18:39:36.282Z,87.52
2018-10-12T18:44:31.979Z,87.89
2018-10-12T18:49:30.758Z,88.74
2018-10-12T18:54:28.171Z,87.45
2018-10-12T18:59:29.991Z,87.92
2018-10-12T19:04:26.050Z,88.83
2018-10-12T19:09:28.414Z,88.86
2018-10-12T19:14:23.697Z,87.59
2018-10-12T19:19:19.031Z,88.11
2018-10-12T19:24:14.340Z,88.28
2018-10-12T19:29:11.576Z,88.45
2018-10-12T19:34:10.118Z,89.48
2018-10-12T19:39:08.503Z,89.40
2018-10-12T19:44:03.881Z,89.19
2018-10-12T19:48:59.141Z,88.72
2018-10-12T19:53:57.920Z,88.81
2018-10-12T19:58:53.349Z,89.54
2018-10-12T20:03:59.412Z,89.15
2018-10-12T20:08:55.231Z,89.61
2018-10-12T20:13:50.632Z,89.59
2018-10-12T20:18:45.909Z,89.60
2018-10-12T20:23:41.449Z,89.06
2018-10-12T20:28:37.008Z,90.13
2018-10-12T20:33:32.465Z,90.05
2018-10-12T20:38:27.486Z,88.99
2018-10-12T20:43:22.429Z,89.39
2018-10-12T20:48:17.366Z,89.87
2018-10-12T20:53:12.238Z,89.98
2018-10-12T20:58:11.250Z,89.14
2018-10-12T21:03:06.428Z,89.22
2018-10-12T21:08:01.344Z,90.30
2018-10-12T21:12:56.277Z,90.49
2018-10-12T21:17:51.186Z,90.32
2018-10-12T21:22:46.086Z,89.15
2018-10-12T21:27:41.003Z,89.91
2018-10-12T21:32:35.934Z,90.39
2018-10-12T21:37:31.027Z,89.68
2018-10-12T21:42:26.040Z,90.11
2018-10-12T21:47:21.018Z,88.73
2018-10-12T21:52:15.850Z,89.28
2018-10-12T21:57:10.765Z,90.14
2018-10-12T22:02:05.681Z,89.38
2018-10-12T22:07:00.602Z,89.34
2018-10-12T22:11:55.498Z,88.94
2018-10-12T22:16:50.462Z,89.71
2018-10-12T22:21:45.406Z,90.17
2018-10-12T22:26:40.600Z,90.16
2018-10-12T22:31:35.801Z,90.80
2018-10-12T22:36:30.798Z,89.63
2018-10-12T22:41:25.704Z,88.90
2018-10-12T22:46:20.600Z,89.29
2018-10-12T22:51:15.449Z,90.05
2018-10-12T22:56:10.298Z,88.67
2018-10-12T23:01:05.203Z,89.24
2018-10-12T23:06:00.102Z,88.38
2018-10-12T23:10:55.082Z,89.61
2018-10-12T23:15:49.948Z,90.05
2018-10-12T23:20:44.855Z,91.60
2018-10-12T23:25:39.754Z,90.11
2018-10-12T23:30:34.616Z,90.70
2018-10-12T23:35:29.611Z,91.53
2018-10-12T23:40:27.470Z,91.09
2018-10-12T23:45:22.422Z,90.39
2018-10-12T23:50:17.298Z,89.75
2018-10-12T23:55:12.157Z,90.75
